createdAt,value
2023-02-25T00:00:34.376Z,5.15
2023-02-25T00:03:01.623Z,5.18
2023-02-25T00:05:31.820Z,5.18
2023-02-25T00:07:58.837Z,5.24
2023-02-25T00:10:25.417Z,5.23
2023-02-25T00:12:51.872Z,5.22
2023-02-25T00:15:18.438Z,5.22
2023-02-25T00:17:45.208Z,5.28
2023-02-25T00:20:13.701Z,5.32
2023-02-25T00:22:40.203Z,5.25
2023-02-25T00:25:07.428Z,5.29
2023-02-25T00:27:33.983Z,5.30
2023-02-25T00:30:00.678Z,5.26
2023-02-25T00:32:27.459Z,5.20
2023-02-25T00:34:54.055Z,5.29
2023-02-25T00:37:20.584Z,5.23
2023-02-25T00:39:47.134Z,5.32
2023-02-25T00:42:15.021Z,5.30
2023-02-25T00:44:49.005Z,5.31
2023-02-25T00:47:17.634Z,5.37
2023-02-25T00:49:47.593Z,5.37
2023-02-25T00:52:14.546Z,5.32
2023-02-25T00:54:41.039Z,5.31
2023-02-25T00:57:07.645Z,5.37
2023-02-25T00:59:34.370Z,5.43
2023-02-25T01:02:00.842Z,5.48
2023-02-25T01:04:27.323Z,5.43
2023-02-25T01:06:54.527Z,5.50
2023-02-25T01:09:21.292Z,5.50
2023-02-25T01:11:48.346Z,5.47
2023-02-25T01:14:20.960Z,5.48
2023-02-25T01:16:48.656Z,5.54
2023-02-25T01:19:23.804Z,5.53
2023-02-25T01:21:53.339Z,5.51
2023-02-25T01:24:26.100Z,5.56
2023-02-25T01:26:54.873Z,5.49
2023-02-25T01:29:26.300Z,5.47
2023-02-25T01:31:55.526Z,5.53
2023-02-25T01:34:22.607Z,5.51
2023-02-25T01:36:49.559Z,5.52
2023-02-25T01:39:18.657Z,5.45
2023-02-25T01:41:50.981Z,5.48
2023-02-25T01:44:23.006Z,5.42
2023-02-25T01:46:52.288Z,5.43
2023-02-25T01:49:23.424Z,5.37
2023-02-25T01:51:55.934Z,5.41
2023-02-25T01:54:22.415Z,5.39
2023-02-25T01:56:52.794Z,5.32
2023-02-25T01:59:21.642Z,5.33
2023-02-25T02:01:48.521Z,5.31
2023-02-25T02:04:17.929Z,5.28
2023-02-25T02:06:46.772Z,5.32
2023-02-25T02:09:34.975Z,5.34
2023-02-25T02:12:06.778Z,5.21
2023-02-25T02:14:38.739Z,5.31
2023-02-25T02:17:15.974Z,5.29
2023-02-25T02:19:49.597Z,5.28
2023-02-25T02:22:37.332Z,5.23
2023-02-25T02:25:28.188Z,5.29
2023-02-25T02:28:03.819Z,5.23
2023-02-25T02:31:12.866Z,5.30
2023-02-25T02:33:55.157Z,5.26
2023-02-25T02:36:40.619Z,5.29
2023-02-25T02:39:29.207Z,5.26
2023-02-25T02:42:12.276Z,5.33
2023-02-25T02:45:02.608Z,5.29
2023-02-25T02:47:35.016Z,5.33
2023-02-25T02:50:07.493Z,5.30
2023-02-25T02:52:42.687Z,5.26
2023-02-25T02:55:13.424Z,5.29
2023-02-25T02:57:42.120Z,5.37
2023-02-25T03:00:18.143Z,5.34
2023-02-25T03:02:55.944Z,5.31
2023-02-25T03:05:28.266Z,5.36
2023-02-25T03:08:07.810Z,5.31
2023-02-25T03:10:34.799Z,5.37
2023-02-25T03:13:01.521Z,5.32
2023-02-25T03:15:29.644Z,5.32
2023-02-25T03:18:02.181Z,5.34
2023-02-25T03:20:37.711Z,5.32
2023-02-25T03:23:09.523Z,5.39
2023-02-25T03:25:59.555Z,5.36
2023-02-25T03:28:29.863Z,5.37
2023-02-25T03:31:21.680Z,5.40
2023-02-25T03:34:10.126Z,5.34
2023-02-25T03:36:47.808Z,5.38
2023-02-25T03:39:26.933Z,5.30
2023-02-25T03:41:57.742Z,5.27
2023-02-25T03:44:30.874Z,5.29
2023-02-25T03:46:58.602Z,5.31
2023-02-25T03:49:38.015Z,5.27
2023-02-25T03:52:11.862Z,5.29
2023-02-25T03:54:38.340Z,5.26
2023-02-25T03:57:10.481Z,5.23
2023-02-25T03:59:37.444Z,5.17
2023-02-25T04:02:04.299Z,5.26
2023-02-25T04:04:30.807Z,5.20
2023-02-25T04:06:57.266Z,5.28
2023-02-25T04:09:23.825Z,5.25
2023-02-25T04:11:50.285Z,5.16
2023-02-25T04:14:18.328Z,5.27
2023-02-25T04:16:44.887Z,5.25
2023-02-25T04:19:11.341Z,5.24
2023-02-25T04:21:39.412Z,5.29
2023-02-25T04:24:07.039Z,5.17
2023-02-25T04:26:35.223Z,5.30
2023-02-25T04:29:01.708Z,5.24
2023-02-25T04:31:28.348Z,5.31
2023-02-25T04:33:57.911Z,5.24
2023-02-25T04:36:27.876Z,5.33
2023-02-25T04:38:55.241Z,5.28
2023-02-25T04:41:23.033Z,5.31
2023-02-25T04:43:49.907Z,5.27
2023-02-25T04:46:16.471Z,5.33
2023-02-25T04:48:42.941Z,5.26
2023-02-25T04:51:09.463Z,5.30
2023-02-25T04:53:36.253Z,5.32
2023-02-25T04:56:07.443Z,5.28
2023-02-25T04:58:35.394Z,5.27
2023-02-25T05:01:04.002Z,5.28
2023-02-25T05:03:30.536Z,5.28
2023-02-25T05:05:57.454Z,5.24
2023-02-25T05:08:24.242Z,5.20
2023-02-25T05:10:51.691Z,5.27
2023-02-25T05:13:19.815Z,5.22
2023-02-25T05:15:48.585Z,5.24
2023-02-25T05:18:15.210Z,5.26
2023-02-25T05:20:45.334Z,5.30
2023-02-25T05:23:11.930Z,5.29
2023-02-25T05:26:02.308Z,5.25
2023-02-25T05:28:28.728Z,5.28
2023-02-25T05:30:58.579Z,5.33
2023-02-25T05:33:25.072Z,5.31
2023-02-25T05:35:51.550Z,5.30
2023-02-25T05:38:18.084Z,5.33
2023-02-25T05:40:44.549Z,5.32
2023-02-25T05:43:11.065Z,5.31
2023-02-25T05:45:37.547Z,5.33
2023-02-25T05:48:04.007Z,5.27
2023-02-25T05:50:31.804Z,5.35
2023-02-25T05:52:58.283Z,5.37
2023-02-25T05:55:26.707Z,5.36
2023-02-25T05:57:53.205Z,5.32
2023-02-25T06:00:21.469Z,5.36
2023-02-25T06:02:47.962Z,5.32
2023-02-25T06:05:14.539Z,5.37
2023-02-25T06:07:49.437Z,5.35
2023-02-25T06:10:16.176Z,5.36
2023-02-25T06:12:43.438Z,5.30
2023-02-25T06:15:10.868Z,5.35
2023-02-25T06:17:37.320Z,5.36
2023-02-25T06:20:04.800Z,5.36
2023-02-25T06:22:31.249Z,5.32
2023-02-25T06:24:57.752Z,5.21
2023-02-25T06:27:24.207Z,5.24
2023-02-25T06:29:50.674Z,5.22
2023-02-25T06:32:17.663Z,5.25
2023-02-25T06:34:44.266Z,5.27
2023-02-25T06:37:10.807Z,5.23
2023-02-25T06:39:37.305Z,5.22
2023-02-25T06:42:03.911Z,5.20
2023-02-25T06:44:30.813Z,5.27
2023-02-25T06:46:57.268Z,5.28
2023-02-25T06:49:24.428Z,5.31
2023-02-25T06:51:50.898Z,5.28
2023-02-25T06:54:18.442Z,5.35
2023-02-25T06:56:45.428Z,5.29
2023-02-25T06:59:11.843Z,5.35
2023-02-25T07:01:38.855Z,5.34
2023-02-25T07:04:05.440Z,5.36
2023-02-25T07:06:32.003Z,5.36
2023-02-25T07:08:58.447Z,5.47
2023-02-25T07:11:24.922Z,5.49
2023-02-25T07:13:51.800Z,5.46
2023-02-25T07:16:18.502Z,5.43
2023-02-25T07:18:45.104Z,5.47
2023-02-25T07:21:12.680Z,5.50
2023-02-25T07:23:39.378Z,5.44
2023-02-25T07:26:07.956Z,5.40
2023-02-25T07:28:34.755Z,5.40
2023-02-25T07:31:02.406Z,5.50
2023-02-25T07:33:30.709Z,5.50
2023-02-25T07:35:58.305Z,5.51
2023-02-25T07:38:24.739Z,5.47
2023-02-25T07:40:51.213Z,5.48
2023-02-25T07:43:17.749Z,5.43
2023-02-25T07:45:44.445Z,5.42
2023-02-25T07:48:11.161Z,5.50
2023-02-25T07:50:37.632Z,5.50
2023-02-25T07:53:04.139Z,5.51
2023-02-25T07:55:30.578Z,5.52
2023-02-25T07:57:57.595Z,5.53
2023-02-25T08:00:24.182Z,5.53
2023-02-25T08:02:50.768Z,5.51
2023-02-25T08:05:21.907Z,5.53
2023-02-25T08:07:48.432Z,5.53
2023-02-25T08:10:14.939Z,5.54
2023-02-25T08:12:41.421Z,5.63
2023-02-25T08:15:08.242Z,5.75
2023-02-25T08:17:34.834Z,5.81
2023-02-25T08:20:01.348Z,5.87
2023-02-25T08:22:27.778Z,5.98
2023-02-25T08:24:55.332Z,6.04
2023-02-25T08:27:21.791Z,6.14
2023-02-25T08:29:48.319Z,6.20
2023-02-25T08:32:14.975Z,6.19
2023-02-25T08:34:41.505Z,6.22
2023-02-25T08:37:11.248Z,6.23
2023-02-25T08:39:38.122Z,6.35
2023-02-25T08:42:04.836Z,6.47
2023-02-25T08:44:31.290Z,6.51
2023-02-25T08:46:57.848Z,6.59
2023-02-25T08:49:24.441Z,6.59
2023-02-25T08:51:51.080Z,6.51
2023-02-25T08:54:17.535Z,6.41
2023-02-25T08:56:47.355Z,6.45
2023-02-25T08:59:15.705Z,6.39
2023-02-25T09:01:46.020Z,6.41
2023-02-25T09:04:14.640Z,6.43
2023-02-25T09:06:41.209Z,6.30
2023-02-25T09:09:07.825Z,6.41
2023-02-25T09:11:37.205Z,6.39
2023-02-25T09:14:03.753Z,6.44
2023-02-25T09:16:30.971Z,6.42
2023-02-25T09:18:58.077Z,6.42
2023-02-25T09:21:24.997Z,6.42
2023-02-25T09:23:51.940Z,6.45
2023-02-25T09:26:20.236Z,6.42
2023-02-25T09:28:47.464Z,6.46
2023-02-25T09:31:15.837Z,6.45
2023-02-25T09:33:43.042Z,6.54
2023-02-25T09:36:12.819Z,6.63
2023-02-25T09:38:41.339Z,6.66
2023-02-25T09:41:23.375Z,6.66
2023-02-25T09:44:10.795Z,6.74
2023-02-25T09:46:45.779Z,6.77
2023-02-25T09:49:25.976Z,6.76
2023-02-25T09:52:13.551Z,6.64
2023-02-25T09:54:45.895Z,6.61
2023-02-25T09:57:19.116Z,6.55
2023-02-25T09:59:52.014Z,6.55
2023-02-25T10:02:32.708Z,6.51
2023-02-25T10:05:14.974Z,6.60
2023-02-25T10:08:15.637Z,6.57
2023-02-25T10:11:04.001Z,6.57
2023-02-25T10:13:45.048Z,6.58
2023-02-25T10:16:25.818Z,6.67
2023-02-25T10:19:13.499Z,6.74
2023-02-25T10:21:54.509Z,6.68
2023-02-25T10:24:36.073Z,6.81
2023-02-25T10:27:14.961Z,6.84
2023-02-25T10:29:49.340Z,6.83
2023-02-25T10:32:28.316Z,6.75
2023-02-25T10:34:59.572Z,6.67
2023-02-25T10:37:33.492Z,6.87
2023-02-25T10:40:04.848Z,7.16
2023-02-25T10:42:31.581Z,7.27
2023-02-25T10:45:08.144Z,7.41
2023-02-25T10:47:37.575Z,7.37
2023-02-25T10:50:42.962Z,7.40
2023-02-25T10:53:18.822Z,7.33
2023-02-25T10:55:54.451Z,7.44
2023-02-25T10:58:40.888Z,7.50
2023-02-25T11:01:13.952Z,7.56
2023-02-25T11:03:45.540Z,7.71
2023-02-25T11:06:22.153Z,7.74
2023-02-25T11:08:50.475Z,7.73
2023-02-25T11:11:17.207Z,7.73
2023-02-25T11:13:44.533Z,7.80
2023-02-25T11:16:13.679Z,8.39
2023-02-25T11:18:41.820Z,8.88
2023-02-25T11:21:13.099Z,9.16
2023-02-25T11:23:43.208Z,9.09
2023-02-25T11:26:16.344Z,9.08
2023-02-25T11:28:49.859Z,9.07
2023-02-25T11:31:26.086Z,8.54
2023-02-25T11:33:59.062Z,8.11
2023-02-25T11:36:33.856Z,7.80
2023-02-25T11:39:16.644Z,7.66
2023-02-25T11:41:45.565Z,7.63
2023-02-25T11:44:27.911Z,7.49
2023-02-25T11:47:03.369Z,7.55
2023-02-25T11:50:09.401Z,7.86
2023-02-25T11:52:46.757Z,8.00
2023-02-25T11:55:18.702Z,7.96
2023-02-25T11:58:05.404Z,8.00
2023-02-25T12:00:58.198Z,8.53
2023-02-25T12:03:46.548Z,9.19
2023-02-25T12:06:37.913Z,9.73
2023-02-25T12:09:48.992Z,10.37
2023-02-25T12:12:30.680Z,10.26
2023-02-25T12:15:46.624Z,9.90
2023-02-25T12:18:15.806Z,10.40
2023-02-25T12:21:10.150Z,10.25
2023-02-25T12:24:01.249Z,10.03
2023-02-25T12:26:46.446Z,10.48
2023-02-25T12:29:44.045Z,11.29
2023-02-25T12:32:13.913Z,11.69
2023-02-25T12:34:46.538Z,11.66
2023-02-25T12:37:32.627Z,11.63
2023-02-25T12:40:08.987Z,11.11
2023-02-25T12:42:38.353Z,10.57
2023-02-25T12:45:23.912Z,10.43
2023-02-25T12:48:10.562Z,10.43
2023-02-25T12:51:04.787Z,10.17
2023-02-25T12:53:46.471Z,10.18
2023-02-25T12:56:14.680Z,10.25
2023-02-25T12:58:57.281Z,10.04
2023-02-25T13:01:42.088Z,10.06
2023-02-25T13:04:40.205Z,10.18
2023-02-25T13:07:15.752Z,11.43
2023-02-25T13:10:20.955Z,12.49
2023-02-25T13:13:14.621Z,13.94
2023-02-25T13:16:18.582Z,14.91
2023-02-25T13:19:30.111Z,15.59
2023-02-25T13:22:17.790Z,16.15
2023-02-25T13:25:22.271Z,16.59
2023-02-25T13:28:23.005Z,16.91
2023-02-25T13:30:58.056Z,17.41
2023-02-25T13:33:46.151Z,17.83
2023-02-25T13:36:24.974Z,16.99
2023-02-25T13:39:23.802Z,17.73
2023-02-25T13:42:04.463Z,18.25
2023-02-25T13:44:55.697Z,18.76
2023-02-25T13:47:46.277Z,19.65
2023-02-25T13:50:34.176Z,19.98
2023-02-25T13:53:16.468Z,19.91
2023-02-25T13:56:23.417Z,20.29
2023-02-25T13:59:01.647Z,20.35
2023-02-25T14:01:50.308Z,20.10
2023-02-25T14:04:22.537Z,18.72
2023-02-25T14:07:13.805Z,16.78
2023-02-25T14:10:17.518Z,15.93
2023-02-25T14:13:05.196Z,17.19
2023-02-25T14:15:57.933Z,17.80
2023-02-25T14:18:46.604Z,18.35
2023-02-25T14:21:34.297Z,18.03
2023-02-25T14:24:16.114Z,16.33
2023-02-25T14:26:53.500Z,15.04
2023-02-25T14:29:57.866Z,16.44
2023-02-25T14:32:49.599Z,17.56
2023-02-25T14:35:16.245Z,17.88
2023-02-25T14:38:26.781Z,17.83
2023-02-25T14:41:14.419Z,18.21
2023-02-25T14:43:42.967Z,18.23
2023-02-25T14:46:33.534Z,18.79
2023-02-25T14:49:09.545Z,18.46
2023-02-25T14:51:54.849Z,17.51
2023-02-25T14:54:40.166Z,15.82
2023-02-25T14:57:24.898Z,15.35
2023-02-25T15:00:23.571Z,15.01
2023-02-25T15:03:19.335Z,14.94
2023-02-25T15:06:03.467Z,14.79
2023-02-25T15:08:57.491Z,14.59
2023-02-25T15:11:39.254Z,14.48
2023-02-25T15:14:05.839Z,14.34
2023-02-25T15:16:59.269Z,14.19
2023-02-25T15:19:44.354Z,14.08
2023-02-25T15:22:13.897Z,13.66
2023-02-25T15:24:42.381Z,13.49
2023-02-25T15:27:37.049Z,13.26
2023-02-25T15:30:17.839Z,13.30
2023-02-25T15:32:53.207Z,13.25
2023-02-25T15:35:36.521Z,13.07
2023-02-25T15:38:13.594Z,12.82
2023-02-25T15:40:52.501Z,12.49
2023-02-25T15:43:18.898Z,12.29
2023-02-25T15:45:47.267Z,12.14
2023-02-25T15:48:15.297Z,11.92
2023-02-25T15:50:46.322Z,11.83
2023-02-25T15:53:21.758Z,11.52
2023-02-25T15:56:09.700Z,11.26
2023-02-25T15:58:52.721Z,10.90
2023-02-25T16:01:27.363Z,10.69
2023-02-25T16:03:54.310Z,10.38
2023-02-25T16:06:24.471Z,10.28
2023-02-25T16:09:04.244Z,10.04
2023-02-25T16:11:49.791Z,9.61
2023-02-25T16:14:25.150Z,9.53
2023-02-25T16:16:57.536Z,9.30
2023-02-25T16:19:33.334Z,9.19
2023-02-25T16:22:02.570Z,9.07
2023-02-25T16:24:29.865Z,8.95
2023-02-25T16:27:38.360Z,8.71
2023-02-25T16:30:21.818Z,8.59
2023-02-25T16:33:05.070Z,8.45
2023-02-25T16:35:44.994Z,8.37
2023-02-25T16:38:39.415Z,8.30
2023-02-25T16:41:06.113Z,8.19
2023-02-25T16:43:38.185Z,8.10
2023-02-25T16:46:12.822Z,7.88
2023-02-25T16:48:50.186Z,7.79
2023-02-25T16:51:21.454Z,7.69
2023-02-25T16:53:53.712Z,7.57
2023-02-25T16:56:24.505Z,7.47
2023-02-25T16:59:09.148Z,7.36
2023-02-25T17:01:38.256Z,7.23
2023-02-25T17:04:19.917Z,7.19
2023-02-25T17:07:23.041Z,7.10
2023-02-25T17:09:54.692Z,6.95
2023-02-25T17:12:34.966Z,6.84
2023-02-25T17:15:03.830Z,6.82
2023-02-25T17:17:37.166Z,6.72
2023-02-25T17:20:09.111Z,6.71
2023-02-25T17:22:37.912Z,6.72
2023-02-25T17:25:06.000Z,6.63
2023-02-25T17:27:32.970Z,6.61
2023-02-25T17:29:59.537Z,6.55
2023-02-25T17:32:29.217Z,6.51
2023-02-25T17:35:00.150Z,6.42
2023-02-25T17:37:29.775Z,6.40
2023-02-25T17:39:56.937Z,6.37
2023-02-25T17:42:36.364Z,6.34
2023-02-25T17:45:07.202Z,6.25
2023-02-25T17:47:35.734Z,6.20
2023-02-25T17:50:25.446Z,6.10
2023-02-25T17:52:52.690Z,6.06
2023-02-25T17:55:25.521Z,5.99
2023-02-25T17:57:57.488Z,5.97
2023-02-25T18:00:27.190Z,5.92
2023-02-25T18:03:12.000Z,5.86
2023-02-25T18:05:50.401Z,5.74
2023-02-25T18:08:29.160Z,5.77
2023-02-25T18:11:20.487Z,5.70
2023-02-25T18:13:47.148Z,5.65
2023-02-25T18:16:37.563Z,5.56
2023-02-25T18:19:24.560Z,5.52
2023-02-25T18:21:52.547Z,5.38
2023-02-25T18:24:24.120Z,5.41
2023-02-25T18:27:19.172Z,5.37
2023-02-25T18:29:45.666Z,5.30
2023-02-25T18:32:12.908Z,5.28
2023-02-25T18:34:39.860Z,5.27
2023-02-25T18:37:06.410Z,5.24
2023-02-25T18:39:32.990Z,5.18
2023-02-25T18:41:59.491Z,5.18
2023-02-25T18:44:25.940Z,5.11
2023-02-25T18:46:52.383Z,5.06
2023-02-25T18:49:19.641Z,5.04
2023-02-25T18:51:48.723Z,4.95
2023-02-25T18:54:17.420Z,4.98
2023-02-25T18:56:43.962Z,4.84
2023-02-25T18:59:10.418Z,4.88
2023-02-25T19:01:37.328Z,4.81
2023-02-25T19:04:03.858Z,4.73
2023-02-25T19:06:33.673Z,4.69
2023-02-25T19:09:00.902Z,4.70
2023-02-25T19:11:31.303Z,4.62
2023-02-25T19:13:57.755Z,4.61
2023-02-25T19:16:25.135Z,4.59
2023-02-25T19:18:51.795Z,4.56
2023-02-25T19:21:20.306Z,4.54
2023-02-25T19:23:49.056Z,4.46
2023-02-25T19:26:16.917Z,4.45
2023-02-25T19:28:43.390Z,4.42
2023-02-25T19:31:10.036Z,4.35
2023-02-25T19:33:36.613Z,4.32
2023-02-25T19:36:04.438Z,4.29
2023-02-25T19:38:31.247Z,4.32
2023-02-25T19:41:02.609Z,4.29
2023-02-25T19:43:31.323Z,4.27
2023-02-25T19:45:57.863Z,4.23
2023-02-25T19:48:24.568Z,4.19
2023-02-25T19:50:51.059Z,4.09
2023-02-25T19:53:17.570Z,4.04
2023-02-25T19:55:44.288Z,4.04
2023-02-25T19:58:10.876Z,4.01
2023-02-25T20:00:38.291Z,3.92
2023-02-25T20:03:04.841Z,3.80
2023-02-25T20:05:31.288Z,3.83
2023-02-25T20:07:57.803Z,3.84
2023-02-25T20:10:24.327Z,3.79
2023-02-25T20:12:50.839Z,3.78
2023-02-25T20:15:17.543Z,3.74
2023-02-25T20:17:46.296Z,3.71
2023-02-25T20:20:14.526Z,3.75
2023-02-25T20:22:41.201Z,3.68
2023-02-25T20:25:09.912Z,3.68
2023-02-25T20:27:39.198Z,3.69
2023-02-25T20:30:06.934Z,3.72
2023-02-25T20:32:33.856Z,3.64
2023-02-25T20:35:00.679Z,3.66
2023-02-25T20:37:31.379Z,3.75
2023-02-25T20:39:59.221Z,3.70
2023-02-25T20:42:29.392Z,3.75
2023-02-25T20:44:57.289Z,3.73
2023-02-25T20:47:26.795Z,3.71
2023-02-25T20:49:55.845Z,3.61
2023-02-25T20:52:23.373Z,3.55
2023-02-25T20:54:50.076Z,3.53
2023-02-25T20:57:20.967Z,3.62
2023-02-25T20:59:48.347Z,3.69
2023-02-25T21:02:16.166Z,3.71
2023-02-25T21:04:43.848Z,3.67
2023-02-25T21:07:11.195Z,3.74
2023-02-25T21:09:37.806Z,3.71
2023-02-25T21:12:04.822Z,3.66
2023-02-25T21:14:31.349Z,3.65
2023-02-25T21:16:57.901Z,3.62
2023-02-25T21:19:26.754Z,3.60
2023-02-25T21:21:53.941Z,3.60
2023-02-25T21:24:21.095Z,3.56
2023-02-25T21:26:47.583Z,3.49
2023-02-25T21:29:14.582Z,3.50
2023-02-25T21:31:41.471Z,3.50
2023-02-25T21:34:11.586Z,3.46
2023-02-25T21:36:38.957Z,3.42
2023-02-25T21:39:06.929Z,3.37
2023-02-25T21:41:36.520Z,3.32
2023-02-25T21:44:03.105Z,3.24
2023-02-25T21:46:29.607Z,3.27
2023-02-25T21:48:56.316Z,3.27
2023-02-25T21:51:25.832Z,3.20
2023-02-25T21:53:57.521Z,3.22
2023-02-25T21:56:25.428Z,3.13
2023-02-25T21:58:56.815Z,3.12
2023-02-25T22:01:26.913Z,3.04
2023-02-25T22:03:54.144Z,2.94
2023-02-25T22:06:23.904Z,2.96
2023-02-25T22:08:51.549Z,2.89
2023-02-25T22:11:21.623Z,2.90
2023-02-25T22:13:50.422Z,2.92
2023-02-25T22:16:17.612Z,2.89
2023-02-25T22:18:44.542Z,2.81
2023-02-25T22:21:13.915Z,2.81
2023-02-25T22:23:43.420Z,2.80
2023-02-25T22:26:13.940Z,2.77
2023-02-25T22:28:40.990Z,2.77
2023-02-25T22:31:11.066Z,2.70
2023-02-25T22:33:37.768Z,2.71
2023-02-25T22:36:05.652Z,2.65
2023-02-25T22:38:34.856Z,2.56
2023-02-25T22:41:02.198Z,2.59
2023-02-25T22:43:29.974Z,2.59
2023-02-25T22:46:10.222Z,2.60
2023-02-25T22:48:38.581Z,2.59
2023-02-25T22:51:07.145Z,2.57
2023-02-25T22:53:33.667Z,2.60
2023-02-25T22:56:02.406Z,2.62
2023-02-25T22:58:29.965Z,2.61
2023-02-25T23:00:57.082Z,2.64
2023-02-25T23:03:23.886Z,2.61
2023-02-25T23:05:52.075Z,2.59
2023-02-25T23:08:19.719Z,2.63
2023-02-25T23:10:46.218Z,2.69
2023-02-25T23:13:12.966Z,2.71
2023-02-25T23:15:41.170Z,2.77
2023-02-25T23:18:08.990Z,2.78
2023-02-25T23:20:38.237Z,2.80
2023-02-25T23:23:06.924Z,2.83
2023-02-25T23:25:37.512Z,2.83
2023-02-25T23:28:05.068Z,2.81
2023-02-25T23:30:31.566Z,2.78
2023-02-25T23:32:58.665Z,2.78
2023-02-25T23:35:25.653Z,2.76
2023-02-25T23:37:52.744Z,2.71
2023-02-25T23:40:19.434Z,2.76
2023-02-25T23:42:45.998Z,2.76
2023-02-25T23:45:13.876Z,2.69
2023-02-25T23:47:42.871Z,2.66
2023-02-25T23:50:17.811Z,2.60
2023-02-25T23:52:45.950Z,2.57
2023-02-25T23:55:14.049Z,2.54
2023-02-25T23:57:41.360Z,2.48
